Ink, Missouri
Current Conditions -  °F | °C
As of 3:53 PM on Saturday 20 Dec 2014 (Local Time) from KUNO Reporting Station
Overcast Overcast  
Wind Chill: 39°   Ceiling: 1900
Heat Index: 42°   Visibility: 10mi
Dew Point: 35°   Wind: 5mph
Humidity: 76%   Direction: 200°SSW
Pressure: 30.2"   Gusts: NA
Location:  37.1833°N, 91.4819°W
Report Text: KUNO 202153Z AUTO 20004KT 10SM OVC019 06/02 A3020 RMK AO2 SLP234 T00560017 $
Loading
Personal Weather Stations






























Interactive Weather Map New forecast layout! Learn more

10-Day Weather Forecast

Advertisements
Track Severe Weather on mobile